Time;durP1;ratioP1;P1;durP2;ratioP2;P2;SDS_P1;SDS_P2;PMS_P1;PMS_P2;Temp;Humidity;BMP_temperature;BMP_pressure;BME280_temperature;BME280_humidity;BME280_pressure;Samples;Min_cycle;Max_cycle;Signal;HPM_P1;HPM_P2
2021/12/16 00:02:42;;;;;;;84.03;42.63;;;9.20;99.90;;;;;;5006842;28;20049;-86
2021/12/16 00:08:03;;;;;;;81.22;39.95;;;9.10;99.90;;;;;;5008683;28;20505;-86
2021/12/16 00:10:36;;;;;;;86.88;40.00;;;9.10;99.90;;;;;;5009275;28;20049;-86
2021/12/16 00:29:57;;;;;;;84.63;40.10;;;9.10;99.90;;;;;;5010083;28;20485;-86
2021/12/16 00:32:44;;;;;;;90.00;42.88;;;9.10;99.90;;;;;;5008440;28;20030;-86
2021/12/16 00:35:11;;;;;;;86.97;39.88;;;9.00;99.90;;;;;;5010916;28;20420;-86
2021/12/16 00:37:37;;;;;;;93.97;41.58;;;8.90;99.90;;;;;;5009861;28;20030;-86
2021/12/16 00:40:06;;;;;;;84.85;40.50;;;8.90;99.90;;;;;;5010939;28;20117;-86
2021/12/16 00:42:43;;;;;;;81.57;40.30;;;8.80;99.90;;;;;;5008332;28;20038;-86
2021/12/16 00:48:24;;;;;;;90.03;39.70;;;8.70;99.90;;;;;;4990521;28;20080;-86
2021/12/16 00:54:25;;;;;;;92.05;41.10;;;8.60;99.90;;;;;;5010692;28;20429;-86
2021/12/16 00:56:19;;;;;;;86.70;39.05;;;8.60;99.90;;;;;;5006551;28;20045;-85
2021/12/16 00:58:52;;;;;;;94.07;42.30;;;8.60;99.90;;;;;;5008529;28;20026;-86
2021/12/16 01:34:29;;;;;;;91.63;42.08;;;9.00;99.90;;;;;;5012154;28;20100;-86
2021/12/16 01:40:00;;;;;;;104.25;43.17;;;9.10;99.90;;;;;;5014002;28;20113;-86
2021/12/16 01:42:45;;;;;;;86.28;40.15;;;9.10;99.90;;;;;;5012814;28;20085;-87
2021/12/16 01:48:15;;;;;;;89.22;39.88;;;9.20;99.90;;;;;;5015490;28;20430;-86
2021/12/16 01:50:46;;;;;;;94.20;40.50;;;9.20;99.90;;;;;;5014680;28;20474;-86
2021/12/16 01:53:25;;;;;;;84.10;40.38;;;9.20;99.90;;;;;;5012275;28;20056;-86
2021/12/16 01:56:15;;;;;;;89.53;41.97;;;9.20;99.90;;;;;;5014318;28;20101;-86
2021/12/16 01:58:41;;;;;;;88.82;40.00;;;9.30;99.90;;;;;;5011277;28;20033;-86
2021/12/16 02:03:49;;;;;;;88.38;40.25;;;9.30;99.90;;;;;;5013153;28;20425;-84
2021/12/16 02:07:03;;;;;;;81.22;39.17;;;9.20;99.90;;;;;;5012614;28;20045;-86
2021/12/16 02:09:36;;;;;;;88.82;40.65;;;9.30;99.90;;;;;;5010059;28;20041;-86
2021/12/16 02:36:40;;;;;;;90.22;39.20;;;9.30;99.90;;;;;;5011974;28;20439;-86
2021/12/16 02:39:21;;;;;;;83.53;39.72;;;9.30;99.90;;;;;;5025284;28;20052;-86
2021/12/16 02:41:49;;;;;;;76.85;37.55;;;9.30;99.90;;;;;;5026114;28;20034;-87
2021/12/16 02:49:57;;;;;;;84.07;39.45;;;9.30;99.90;;;;;;5014170;28;20036;-86
2021/12/16 02:52:26;;;;;;;81.53;39.28;;;9.30;99.90;;;;;;5011712;28;20113;-86
2021/12/16 02:54:52;;;;;;;82.65;39.30;;;9.30;99.90;;;;;;5011151;28;20025;-87
2021/12/16 02:57:18;;;;;;;92.57;40.33;;;9.30;99.90;;;;;;5012890;28;20093;-87
2021/12/16 02:59:45;;;;;;;85.35;40.17;;;9.30;99.90;;;;;;5011394;28;20133;-86
2021/12/16 03:02:15;;;;;;;93.53;42.35;;;9.30;99.90;;;;;;5011580;28;20038;-87
2021/12/16 03:04:43;;;;;;;90.15;40.72;;;9.30;99.90;;;;;;5008347;28;20022;-87
2021/12/16 03:07:12;;;;;;;84.30;40.35;;;9.30;99.90;;;;;;5008139;28;20084;-86
2021/12/16 03:14:47;;;;;;;87.13;38.20;;;9.20;99.90;;;;;;5011411;28;20034;-86
2021/12/16 03:17:22;;;;;;;85.05;39.47;;;9.20;99.90;;;;;;5010195;28;20508;-86
2021/12/16 03:20:10;;;;;;;89.15;38.63;;;9.10;99.90;;;;;;5009162;28;20053;-87
2021/12/16 03:25:35;;;;;;;86.95;39.08;;;9.00;99.90;;;;;;5011624;28;20048;-87
2021/12/16 03:28:29;;;;;;;79.55;37.10;;;8.90;99.90;;;;;;5011235;28;20030;-86
2021/12/16 03:38:20;;;;;;;79.78;37.60;;;8.70;99.90;;;;;;5010381;28;20050;-87
2021/12/16 03:40:45;;;;;;;92.32;40.35;;;8.60;99.90;;;;;;5009514;28;20030;-87
2021/12/16 03:43:15;;;;;;;93.40;40.50;;;8.50;99.90;;;;;;5008926;28;20036;-86
2021/12/16 03:48:37;;;;;;;89.15;38.88;;;8.40;99.90;;;;;;5009886;28;20045;-87
2021/12/16 03:51:11;;;;;;;91.75;39.42;;;8.30;99.90;;;;;;5011296;28;20041;-86
2021/12/16 03:53:37;;;;;;;88.70;38.55;;;8.30;99.90;;;;;;5009422;28;20077;-87
2021/12/16 03:56:05;;;;;;;81.35;36.30;;;8.20;99.90;;;;;;5006466;28;20026;-86
2021/12/16 03:58:31;;;;;;;80.35;37.30;;;8.20;99.90;;;;;;5010977;28;20034;-86
2021/12/16 04:01:01;;;;;;;90.50;38.08;;;8.10;99.90;;;;;;5010673;28;20490;-86
2021/12/16 04:03:27;;;;;;;89.80;39.95;;;8.00;99.90;;;;;;5008703;28;20029;-87
2021/12/16 04:05:53;;;;;;;91.63;39.70;;;8.00;99.90;;;;;;5011228;28;20393;-87
2021/12/16 04:08:19;;;;;;;89.20;38.70;;;8.00;99.90;;;;;;5008942;28;20044;-87
2021/12/16 04:11:02;;;;;;;89.55;38.28;;;7.90;99.90;;;;;;5010471;28;20022;-86
2021/12/16 04:13:53;;;;;;;90.13;39.87;;;7.90;99.90;;;;;;5009071;28;20478;-86
2021/12/16 04:16:40;;;;;;;87.05;37.78;;;7.90;99.90;;;;;;5010851;28;20018;-87
2021/12/16 04:19:09;;;;;;;88.07;36.63;;;7.90;99.90;;;;;;5011432;28;20141;-87
2021/12/16 04:21:38;;;;;;;103.30;39.95;;;7.80;99.90;;;;;;5011112;28;20549;-87
2021/12/16 04:24:04;;;;;;;99.30;41.45;;;7.80;99.90;;;;;;5010189;28;20129;-87
2021/12/16 04:26:30;;;;;;;95.65;39.38;;;7.70;99.90;;;;;;5008275;28;20133;-87
2021/12/16 04:28:57;;;;;;;102.38;39.75;;;7.60;99.90;;;;;;5026172;28;20470;-87
2021/12/16 04:31:23;;;;;;;103.55;39.60;;;7.60;99.90;;;;;;5009653;28;20030;-86
2021/12/16 04:33:50;;;;;;;98.55;40.83;;;7.60;99.90;;;;;;5006016;28;20022;-86
2021/12/16 04:36:16;;;;;;;90.18;38.25;;;7.60;99.90;;;;;;5010932;28;20446;-87
2021/12/16 04:38:43;;;;;;;96.65;40.55;;;7.50;99.90;;;;;;5009500;28;20022;-86
2021/12/16 04:41:12;;;;;;;106.28;41.55;;;7.50;99.90;;;;;;5005806;28;20497;-86
2021/12/16 04:43:40;;;;;;;104.22;40.03;;;7.40;99.90;;;;;;5010900;28;20026;-87
2021/12/16 04:46:17;;;;;;;107.28;41.85;;;7.40;99.90;;;;;;5010187;28;20026;-87
2021/12/16 04:48:45;;;;;;;101.90;41.65;;;7.40;99.90;;;;;;5007496;28;20113;-87
2021/12/16 04:51:11;;;;;;;109.03;39.90;;;7.30;99.90;;;;;;5010538;28;20029;-87
2021/12/16 04:53:39;;;;;;;106.32;39.42;;;7.30;99.90;;;;;;5010126;28;20111;-87
2021/12/16 04:56:08;;;;;;;111.18;42.28;;;7.20;99.90;;;;;;5009682;28;20026;-87
2021/12/16 04:58:33;;;;;;;99.15;39.78;;;7.20;99.90;;;;;;5007002;28;20030;-87
2021/12/16 05:00:59;;;;;;;137.40;45.50;;;7.20;99.90;;;;;;5014854;28;20053;-86
2021/12/16 05:03:25;;;;;;;128.10;42.40;;;7.10;99.90;;;;;;5015630;28;20028;-86
2021/12/16 05:05:51;;;;;;;118.47;44.38;;;7.10;99.90;;;;;;5013770;28;20048;-86
2021/12/16 05:08:17;;;;;;;105.07;41.72;;;7.20;99.90;;;;;;5012326;28;20022;-87
2021/12/16 05:10:43;;;;;;;118.00;42.90;;;7.20;99.90;;;;;;5012649;28;20028;-87
2021/12/16 05:13:09;;;;;;;130.85;43.17;;;7.20;99.90;;;;;;5012578;28;20022;-87
2021/12/16 05:15:38;;;;;;;122.45;42.50;;;7.30;99.90;;;;;;5012106;28;20052;-86
2021/12/16 05:18:06;;;;;;;98.35;42.08;;;7.20;99.90;;;;;;5011683;28;20065;-87
2021/12/16 05:20:38;;;;;;;120.05;42.53;;;7.20;99.90;;;;;;5012817;28;20069;-86
2021/12/16 05:28:33;;;;;;;354.38;43.63;;;7.10;99.90;;;;;;5005219;28;20080;-87
2021/12/16 05:30:59;;;;;;;281.10;39.08;;;7.00;99.90;;;;;;5013642;28;20046;-87
2021/12/16 05:33:26;;;;;;;145.52;39.92;;;6.90;99.90;;;;;;5013081;28;20589;-87
2021/12/16 05:35:54;;;;;;;109.65;38.35;;;6.80;99.90;;;;;;5014096;28;20066;-88
2021/12/16 05:38:20;;;;;;;102.75;38.20;;;6.80;99.90;;;;;;5010203;28;20037;-87
2021/12/16 05:40:46;;;;;;;103.95;38.70;;;6.80;99.90;;;;;;5014987;28;20030;-87
2021/12/16 05:43:15;;;;;;;114.07;40.38;;;6.80;99.90;;;;;;5015136;28;20085;-87
2021/12/16 05:45:43;;;;;;;342.48;49.20;;;6.80;99.90;;;;;;5015135;28;20030;-87
2021/12/16 05:48:12;;;;;;;110.93;36.63;;;6.80;99.90;;;;;;5014236;28;20026;-87
2021/12/16 05:50:42;;;;;;;158.93;41.20;;;6.70;99.90;;;;;;5011455;28;20075;-87
2021/12/16 05:53:09;;;;;;;155.80;43.60;;;6.70;99.90;;;;;;5014505;28;20030;-87
2021/12/16 05:55:35;;;;;;;256.42;49.30;;;6.70;99.90;;;;;;5012680;28;20025;-87
2021/12/16 05:58:04;;;;;;;515.80;55.17;;;6.70;99.90;;;;;;5027511;28;20045;-87
2021/12/16 06:00:40;;;;;;;82.65;31.63;;;6.70;99.90;;;;;;5014179;28;20029;-87
2021/12/16 06:03:07;;;;;;;490.23;46.67;;;6.80;99.90;;;;;;5010583;28;20041;-88
2021/12/16 06:05:32;;;;;;;323.52;40.42;;;6.70;99.90;;;;;;5012348;28;20070;-87
2021/12/16 06:07:59;;;;;;;746.15;64.45;;;6.70;99.90;;;;;;5009455;28;20442;-88
2021/12/16 06:12:52;;;;;;;685.97;54.63;;;6.80;99.90;;;;;;5016114;28;20456;-90
2021/12/16 06:15:34;;;;;;;574.33;50.30;;;6.80;99.90;;;;;;5015765;28;20113;-88
2021/12/16 06:29:13;;;;;;;379.23;40.10;;;6.80;99.90;;;;;;4996526;28;20218;-88
2021/12/16 06:31:39;;;;;;;244.32;32.60;;;6.80;99.90;;;;;;5006085;28;20034;-88
2021/12/16 06:34:04;;;;;;;210.35;31.02;;;6.80;99.90;;;;;;5011352;28;20029;-88
2021/12/16 06:36:30;;;;;;;284.20;34.97;;;6.80;99.90;;;;;;5010027;28;20163;-88
2021/12/16 06:38:56;;;;;;;358.67;38.88;;;6.70;99.90;;;;;;5012845;28;20073;-88
2021/12/16 06:41:22;;;;;;;67.78;26.13;;;6.70;99.90;;;;;;5012058;28;20044;-88
2021/12/16 06:43:52;;;;;;;86.43;25.83;;;6.70;99.90;;;;;;5013255;28;20037;-88
2021/12/16 06:46:20;;;;;;;84.80;27.55;;;6.70;99.90;;;;;;5013176;28;20390;-86
2021/12/16 06:48:54;;;;;;;534.70;51.70;;;6.80;99.90;;;;;;5010395;28;20068;-88
2021/12/16 06:51:33;;;;;;;460.08;45.17;;;6.80;99.90;;;;;;5011105;28;20128;-88
2021/12/16 06:54:05;;;;;;;178.23;29.63;;;6.80;99.90;;;;;;5025991;28;20458;-89
2021/12/16 06:56:39;;;;;;;407.02;40.08;;;6.80;99.90;;;;;;5020412;28;20034;-88
2021/12/16 06:59:10;;;;;;;331.33;37.30;;;6.70;99.90;;;;;;5015121;28;20030;-88
2021/12/16 07:04:04;;;;;;;167.93;30.60;;;6.60;99.90;;;;;;5017041;28;20072;-88
2021/12/16 07:06:31;;;;;;;79.25;28.73;;;6.60;99.90;;;;;;5017098;28;20192;-88
2021/12/16 07:09:02;;;;;;;284.38;38.67;;;6.60;99.90;;;;;;5013255;28;20041;-87
2021/12/16 07:11:28;;;;;;;412.30;45.65;;;6.60;99.90;;;;;;5015370;28;20029;-87
2021/12/16 07:13:59;;;;;;;145.73;31.15;;;6.60;99.90;;;;;;5014132;28;20022;-87
2021/12/16 07:16:27;;;;;;;164.20;31.60;;;6.50;99.90;;;;;;5012824;28;20030;-87
2021/12/16 07:18:55;;;;;;;150.70;30.75;;;6.50;99.90;;;;;;5009815;28;20449;-86
2021/12/16 07:21:20;;;;;;;251.35;35.10;;;6.50;99.90;;;;;;5014497;28;20037;-86
2021/12/16 07:23:46;;;;;;;90.50;28.13;;;6.40;99.90;;;;;;5015666;28;20049;-86
2021/12/16 07:26:12;;;;;;;112.00;29.92;;;6.40;99.90;;;;;;5033098;28;20117;-86
2021/12/16 07:28:38;;;;;;;161.05;32.63;;;6.40;99.90;;;;;;5016301;28;20034;-86
2021/12/16 07:31:03;;;;;;;277.45;38.95;;;6.40;99.90;;;;;;5015243;28;20026;-86
2021/12/16 07:33:29;;;;;;;252.38;36.40;;;6.40;99.90;;;;;;5009711;28;20494;-92
2021/12/16 07:35:55;;;;;;;233.52;36.28;;;6.40;99.90;;;;;;5013254;28;20118;-86
2021/12/16 07:38:21;;;;;;;162.75;34.78;;;6.40;99.90;;;;;;5013160;28;20034;-87
2021/12/16 07:40:50;;;;;;;198.85;33.97;;;6.40;99.90;;;;;;5011557;28;20086;-88
2021/12/16 07:46:01;;;;;;;96.95;28.60;;;6.40;99.90;;;;;;5024771;28;20041;-88
2021/12/16 07:48:27;;;;;;;88.75;26.70;;;6.50;99.90;;;;;;5014058;28;20025;-88
2021/12/16 07:50:56;;;;;;;110.35;28.25;;;6.50;99.90;;;;;;5025129;28;20153;-88
2021/12/16 07:53:22;;;;;;;228.40;36.25;;;6.50;99.90;;;;;;5000194;28;20026;-89
2021/12/16 07:55:48;;;;;;;167.98;33.42;;;6.50;99.90;;;;;;5014475;28;20034;-88
2021/12/16 07:58:15;;;;;;;140.13;30.52;;;6.50;99.90;;;;;;5014820;28;20025;-89
2021/12/16 08:00:41;;;;;;;275.40;38.80;;;6.50;99.90;;;;;;5012068;28;20046;-85
2021/12/16 08:03:09;;;;;;;223.70;37.55;;;6.60;99.90;;;;;;5005907;28;20022;-87
2021/12/16 08:05:39;;;;;;;198.20;37.72;;;6.60;99.90;;;;;;5008497;28;20026;-88
2021/12/16 08:08:06;;;;;;;217.38;36.58;;;6.70;99.90;;;;;;5015110;28;20098;-88
2021/12/16 08:10:33;;;;;;;389.70;44.85;;;6.70;99.90;;;;;;5015334;28;20049;-88
2021/12/16 08:12:59;;;;;;;160.73;36.22;;;6.70;99.90;;;;;;5010432;28;20034;-88
2021/12/16 08:15:25;;;;;;;320.30;43.08;;;6.70;99.90;;;;;;5012728;28;20028;-88
2021/12/16 08:17:50;;;;;;;185.05;35.30;;;6.80;99.90;;;;;;5007945;28;20433;-88
2021/12/16 08:20:18;;;;;;;112.35;31.50;;;6.80;99.90;;;;;;5010463;28;20046;-88
2021/12/16 08:22:47;;;;;;;409.85;45.40;;;6.80;99.90;;;;;;5007719;28;20053;-88
2021/12/16 08:25:13;;;;;;;327.13;41.58;;;6.90;99.90;;;;;;5011521;28;20021;-88
2021/12/16 08:27:39;;;;;;;384.33;43.60;;;6.90;99.90;;;;;;5010694;28;20418;-88
2021/12/16 08:30:11;;;;;;;375.75;43.67;;;7.00;99.90;;;;;;5010522;28;20022;-88
2021/12/16 08:32:37;;;;;;;260.67;38.95;;;6.90;99.90;;;;;;5009070;28;20440;-88
2021/12/16 08:35:03;;;;;;;247.75;40.90;;;7.00;99.90;;;;;;5014268;28;20109;-88
2021/12/16 08:37:29;;;;;;;285.15;39.50;;;7.10;99.90;;;;;;5016521;28;20032;-88
2021/12/16 08:39:55;;;;;;;170.27;36.30;;;7.10;99.90;;;;;;5014612;28;20022;-88
2021/12/16 08:42:20;;;;;;;168.85;35.95;;;7.20;99.90;;;;;;5013156;28;20053;-88
2021/12/16 08:44:46;;;;;;;183.73;36.67;;;7.20;99.90;;;;;;4997170;28;20019;-87
2021/12/16 08:47:15;;;;;;;368.25;43.13;;;7.20;99.90;;;;;;5007344;28;20172;-87
2021/12/16 08:49:41;;;;;;;521.63;53.28;;;7.30;99.90;;;;;;5016868;28;20029;-88
2021/12/16 08:52:11;;;;;;;453.15;49.35;;;7.30;99.90;;;;;;5011960;28;20073;-88
2021/12/16 08:54:36;;;;;;;425.02;48.35;;;7.40;99.90;;;;;;5005673;28;20048;-88
2021/12/16 08:57:03;;;;;;;167.35;36.03;;;7.40;99.90;;;;;;5014975;28;20029;-87
2021/12/16 08:59:29;;;;;;;224.60;38.63;;;7.40;99.90;;;;;;5016501;28;20518;-88
2021/12/16 09:01:58;;;;;;;469.23;49.35;;;7.50;99.90;;;;;;5016013;28;20042;-88
2021/12/16 09:04:25;;;;;;;311.83;43.97;;;7.50;99.90;;;;;;5015194;28;20053;-87
2021/12/16 09:06:54;;;;;;;456.50;49.45;;;7.60;99.90;;;;;;5015690;28;20033;-88
2021/12/16 09:09:20;;;;;;;177.13;38.33;;;7.60;99.90;;;;;;5014486;28;20068;-87
2021/12/16 09:14:44;;;;;;;128.68;35.90;;;7.70;99.90;;;;;;5003730;28;20069;-87
2021/12/16 09:17:14;;;;;;;387.42;46.33;;;7.70;99.90;;;;;;5012306;28;20022;-87
2021/12/16 09:19:45;;;;;;;193.85;37.17;;;7.70;99.90;;;;;;5015579;28;20049;-88
2021/12/16 09:22:15;;;;;;;148.15;36.20;;;7.70;99.90;;;;;;5017314;28;20081;-88
2021/12/16 09:24:40;;;;;;;321.67;44.88;;;7.70;99.90;;;;;;5017406;28;20030;-87
2021/12/16 09:27:06;;;;;;;266.85;42.53;;;7.80;99.90;;;;;;5015995;28;20029;-87
2021/12/16 09:29:32;;;;;;;176.82;35.60;;;7.80;99.90;;;;;;5016860;28;20057;-88
2021/12/16 09:31:58;;;;;;;169.32;37.08;;;7.80;99.90;;;;;;5015164;28;20080;-88
2021/12/16 09:34:24;;;;;;;249.75;41.85;;;7.80;99.90;;;;;;5018992;28;20088;-87
2021/12/16 09:36:49;;;;;;;155.70;35.65;;;7.80;99.90;;;;;;5016412;28;20490;-87
2021/12/16 09:39:21;;;;;;;205.80;38.45;;;7.80;99.90;;;;;;5015066;28;20029;-87
2021/12/16 09:41:49;;;;;;;256.23;40.10;;;7.90;99.90;;;;;;5018003;28;20034;-87
2021/12/16 09:44:15;;;;;;;257.63;43.03;;;7.90;99.90;;;;;;5016670;28;20034;-87
2021/12/16 09:46:45;;;;;;;243.77;41.53;;;7.90;99.90;;;;;;5016189;28;20034;-87
2021/12/16 09:49:11;;;;;;;252.38;42.08;;;7.90;99.90;;;;;;5016332;28;20198;-87
2021/12/16 09:51:41;;;;;;;201.70;39.50;;;8.00;99.90;;;;;;5013431;28;20090;-88
2021/12/16 09:54:11;;;;;;;280.58;43.47;;;8.00;99.90;;;;;;5019891;28;20421;-87
2021/12/16 09:56:39;;;;;;;233.80;44.40;;;8.00;99.90;;;;;;5018939;28;20030;-87
2021/12/16 09:59:07;;;;;;;230.27;40.45;;;8.00;99.90;;;;;;5016511;28;20029;-87
2021/12/16 10:01:33;;;;;;;328.17;44.50;;;8.00;99.90;;;;;;5018153;28;20041;-87
2021/12/16 10:04:03;;;;;;;281.63;44.47;;;8.00;99.90;;;;;;5017081;28;20054;-88
2021/12/16 10:06:32;;;;;;;143.57;38.15;;;8.10;99.90;;;;;;5007297;28;20590;-87
2021/12/16 10:09:00;;;;;;;149.30;36.92;;;8.10;99.90;;;;;;5018624;28;20418;-88
2021/12/16 10:11:26;;;;;;;124.28;34.50;;;8.10;99.90;;;;;;5017947;28;20390;-87
2021/12/16 10:19:21;;;;;;;130.45;37.45;;;8.00;99.90;;;;;;5011321;28;20067;-87
2021/12/16 10:21:47;;;;;;;211.45;42.35;;;8.00;99.90;;;;;;5015604;28;20038;-87
2021/12/16 10:24:29;;;;;;;168.82;41.30;;;8.00;99.90;;;;;;5017517;28;20112;-87
2021/12/16 10:27:17;;;;;;;236.00;42.38;;;8.10;99.90;;;;;;5016345;28;20026;-87
2021/12/16 10:29:49;;;;;;;173.10;38.22;;;8.10;99.90;;;;;;5007722;28;20031;-88
2021/12/16 10:32:35;;;;;;;;;;;8.10;99.90;;;;;;5010396;28;20140;-87
2021/12/16 10:35:07;;;;;;;143.00;35.40;;;8.10;99.90;;;;;;5016514;28;19913;-87
2021/12/16 10:37:36;;;;;;;134.90;36.38;;;8.10;99.90;;;;;;5014210;28;20088;-87
2021/12/16 10:40:36;;;;;;;220.85;42.78;;;8.10;99.90;;;;;;5016014;28;20026;-88
2021/12/16 10:43:11;;;;;;;102.43;34.42;;;8.20;99.90;;;;;;5012426;28;20125;-87
2021/12/16 10:45:55;;;;;;;106.78;34.35;;;8.20;99.90;;;;;;5031461;28;20029;-87
2021/12/16 10:48:30;;;;;;;123.68;35.47;;;8.20;99.90;;;;;;5028978;28;20453;-88
2021/12/16 10:51:19;;;;;;;179.32;37.72;;;8.30;99.90;;;;;;5011364;28;20046;-87
2021/12/16 10:54:05;;;;;;;104.65;34.60;;;8.30;99.90;;;;;;5008053;28;20041;-87
2021/12/16 10:56:41;;;;;;;306.38;44.78;;;8.30;99.90;;;;;;5014985;28;20490;-88
2021/12/16 10:59:15;;;;;;;155.52;36.88;;;8.30;99.90;;;;;;5015115;28;20050;-87
2021/12/16 11:01:47;;;;;;;235.20;42.35;;;8.40;99.90;;;;;;5014599;28;20045;-88
2021/12/16 11:04:32;;;;;;;263.88;41.78;;;8.60;99.90;;;;;;5012640;28;20041;-88
2021/12/16 11:07:09;;;;;;;249.82;44.40;;;8.60;99.90;;;;;;5015054;28;20108;-88
2021/12/16 11:09:42;;;;;;;171.52;39.13;;;8.70;99.90;;;;;;5015884;28;20033;-88
2021/12/16 11:12:13;;;;;;;271.13;44.22;;;8.70;99.90;;;;;;5015628;28;20037;-88
2021/12/16 11:14:42;;;;;;;222.25;41.55;;;8.80;99.90;;;;;;5015488;28;20025;-88
2021/12/16 11:17:12;;;;;;;155.80;40.40;;;8.90;99.90;;;;;;5015817;28;20418;-88
2021/12/16 11:19:48;;;;;;;94.90;35.25;;;9.00;99.90;;;;;;5015823;28;20057;-87
2021/12/16 11:22:18;;;;;;;214.27;41.10;;;9.00;99.90;;;;;;4996990;28;20446;-88
2021/12/16 11:24:45;;;;;;;81.82;33.05;;;9.10;99.90;;;;;;5012141;28;20057;-88
2021/12/16 11:27:30;;;;;;;120.88;33.13;;;9.10;99.90;;;;;;5010197;28;20030;-88
2021/12/16 11:29:58;;;;;;;88.82;32.08;;;9.00;99.90;;;;;;5008574;28;20075;-88
2021/12/16 11:32:45;;;;;;;81.45;33.00;;;9.00;99.90;;;;;;5013798;28;20025;-88
2021/12/16 11:35:25;;;;;;;93.78;33.15;;;8.90;99.90;;;;;;5015466;28;20041;-88
2021/12/16 11:37:51;;;;;;;98.20;35.28;;;8.90;99.90;;;;;;5014221;28;20448;-87
2021/12/16 11:40:18;;;;;;;94.60;35.00;;;8.90;99.90;;;;;;5014828;28;20025;-88
2021/12/16 11:42:56;;;;;;;98.20;36.50;;;8.90;99.90;;;;;;5004978;28;20064;-88
2021/12/16 11:45:37;;;;;;;111.78;39.60;;;8.80;99.90;;;;;;5017433;28;20165;-88
2021/12/16 11:48:06;;;;;;;132.20;39.20;;;8.90;99.90;;;;;;5013746;28;20034;-88
2021/12/16 11:50:36;;;;;;;130.57;41.88;;;8.90;99.90;;;;;;5012139;28;20025;-88
2021/12/16 11:53:02;;;;;;;100.07;39.72;;;8.90;99.90;;;;;;5009772;28;20125;-86
2021/12/16 11:55:28;;;;;;;114.13;35.65;;;9.00;99.90;;;;;;5014207;28;20069;-88
2021/12/16 11:58:00;;;;;;;112.35;37.85;;;9.00;99.90;;;;;;5009143;28;20423;-88
2021/12/16 12:00:31;;;;;;;;;;;9.10;99.90;;;;;;5011686;28;20107;-88
2021/12/16 12:03:07;;;;;;;112.93;35.42;;;9.10;99.90;;;;;;5025124;28;19943;-88
2021/12/16 12:05:49;;;;;;;117.78;34.85;;;9.10;99.90;;;;;;5010976;28;20033;-86
2021/12/16 12:08:20;;;;;;;119.22;35.55;;;9.30;99.90;;;;;;5013213;28;20165;-87
2021/12/16 12:10:59;;;;;;;123.33;39.17;;;9.30;99.90;;;;;;5013594;28;20022;-87
2021/12/16 12:13:28;;;;;;;246.00;46.17;;;9.30;99.90;;;;;;5012664;28;20029;-88
2021/12/16 12:16:08;;;;;;;100.10;38.65;;;9.40;99.90;;;;;;5012764;28;20022;-87
2021/12/16 12:18:42;;;;;;;189.93;43.22;;;9.50;99.90;;;;;;5012385;28;20445;-87
2021/12/16 12:21:41;;;;;;;135.60;42.17;;;9.50;99.90;;;;;;5012679;28;20038;-87
2021/12/16 12:24:09;;;;;;;113.55;38.80;;;9.50;99.90;;;;;;5013332;28;20466;-87
2021/12/16 12:26:39;;;;;;;131.27;38.92;;;9.60;99.90;;;;;;5013486;28;20037;-86
2021/12/16 12:29:13;;;;;;;92.57;35.47;;;9.60;99.90;;;;;;5013203;28;20036;-86
2021/12/16 12:31:46;;;;;;;105.63;39.17;;;9.60;99.90;;;;;;5013947;28;20101;-86
2021/12/16 12:34:13;;;;;;;145.55;39.67;;;9.60;99.90;;;;;;5010038;28;20030;-87
2021/12/16 12:36:39;;;;;;;127.18;37.25;;;9.60;99.90;;;;;;5012907;28;20033;-87
2021/12/16 12:39:10;;;;;;;208.15;38.58;;;9.60;99.90;;;;;;5013291;28;20478;-86
2021/12/16 12:41:36;;;;;;;102.55;34.38;;;9.50;99.90;;;;;;5013812;28;20059;-86
2021/12/16 12:44:04;;;;;;;207.05;40.25;;;9.50;99.90;;;;;;5009205;28;20506;-86
2021/12/16 12:46:32;;;;;;;104.78;35.20;;;9.30;99.90;;;;;;5013563;28;20022;-86
2021/12/16 12:49:02;;;;;;;118.10;37.15;;;9.30;99.90;;;;;;5011951;28;20052;-87
2021/12/16 12:51:46;;;;;;;109.70;35.05;;;9.30;99.90;;;;;;5025958;28;20127;-86
2021/12/16 12:54:20;;;;;;;111.38;35.22;;;9.40;99.90;;;;;;5013204;28;20041;-86
2021/12/16 12:56:47;;;;;;;91.13;36.63;;;9.40;99.90;;;;;;5010053;28;20035;-84
2021/12/16 12:59:15;;;;;;;107.90;37.45;;;9.40;99.90;;;;;;5028429;28;20084;-83
2021/12/16 13:01:49;;;;;;;101.50;37.58;;;9.40;99.90;;;;;;5014190;28;20620;-85
2021/12/16 13:04:27;;;;;;;126.07;40.92;;;9.50;99.90;;;;;;5013953;28;20108;-85
2021/12/16 13:07:08;;;;;;;179.98;43.70;;;9.60;99.90;;;;;;4998159;28;20083;-85
2021/12/16 13:09:54;;;;;;;79.95;35.17;;;9.80;99.90;;;;;;4993670;28;20030;-85
2021/12/16 13:15:28;;;;;;;104.60;34.90;;;9.80;99.90;;;;;;5012855;28;20087;-85
2021/12/16 13:23:36;;;;;;;66.93;29.40;;;9.80;99.90;;;;;;5017111;28;19929;-85
2021/12/16 13:29:20;;;;;;;137.40;34.20;;;9.70;99.90;;;;;;5002731;28;20055;-85
2021/12/16 13:32:04;;;;;;;89.43;32.80;;;9.60;99.90;;;;;;5016033;28;20037;-85
2021/12/16 13:34:43;;;;;;;88.18;29.65;;;9.50;99.90;;;;;;5015426;28;20037;-84
2021/12/16 13:37:22;;;;;;;75.78;32.30;;;9.50;99.90;;;;;;5014656;28;20037;-85
2021/12/16 13:39:54;;;;;;;86.47;33.00;;;9.40;99.90;;;;;;5015685;28;20061;-85
2021/12/16 13:42:20;;;;;;;82.90;32.75;;;9.30;99.90;;;;;;5008346;28;20081;-85
2021/12/16 13:44:55;;;;;;;83.68;30.35;;;9.30;99.90;;;;;;5014295;28;20500;-85
2021/12/16 13:48:14;;;;;;;151.52;34.60;;;9.30;99.90;;;;;;5011295;28;20056;-85
2021/12/16 14:05:22;;;;;;;145.98;33.15;;;9.20;99.90;;;;;;5018532;28;20080;-85
2021/12/16 14:07:59;;;;;;;99.22;32.22;;;9.20;99.90;;;;;;5016441;28;20073;-85
2021/12/16 14:10:49;;;;;;;155.15;35.90;;;9.20;99.90;;;;;;5016770;28;20125;-85
2021/12/16 14:16:14;;;;;;;257.08;42.88;;;9.20;99.90;;;;;;5018190;28;20030;-85
2021/12/16 14:25:30;;;;;;;;;;;9.20;99.90;;;;;;5014033;28;20036;-86
2021/12/16 14:36:46;;;;;;;149.27;31.10;;;9.00;99.90;;;;;;5012979;28;20104;-87
2021/12/16 14:42:05;;;;;;;323.75;37.25;;;9.00;99.90;;;;;;5016211;28;20141;-88
2021/12/16 14:49:50;;;;;;;119.97;32.40;;;9.00;99.90;;;;;;5011693;28;20041;-86
2021/12/16 14:52:22;;;;;;;315.23;41.20;;;8.90;99.90;;;;;;5006643;28;20501;-87
2021/12/16 14:54:57;;;;;;;283.47;36.90;;;8.90;99.90;;;;;;5021633;28;20032;-87
2021/12/16 14:57:30;;;;;;;190.38;33.45;;;8.90;99.90;;;;;;5015236;28;20640;-87
2021/12/16 14:59:56;;;;;;;228.30;34.42;;;8.80;99.90;;;;;;5015991;28;20026;-88
2021/12/16 15:02:28;;;;;;;327.10;42.25;;;8.80;99.90;;;;;;5015485;28;20044;-87
2021/12/16 15:04:54;;;;;;;210.20;32.53;;;8.90;99.90;;;;;;5027758;28;20084;-87
2021/12/16 15:07:21;;;;;;;423.00;43.40;;;8.80;99.90;;;;;;5013929;28;20486;-87
2021/12/16 15:09:47;;;;;;;348.33;38.65;;;8.80;99.90;;;;;;5015986;28;20065;-87
2021/12/16 15:12:31;;;;;;;403.48;41.28;;;8.80;99.90;;;;;;5003103;28;20379;-87
2021/12/16 15:45:15;;;;;;;349.80;41.22;;;8.60;99.90;;;;;;5019623;28;20083;-87
2021/12/16 15:47:49;;;;;;;108.22;30.38;;;8.60;99.90;;;;;;5033196;28;20034;-87
2021/12/16 15:50:19;;;;;;;102.78;31.40;;;8.50;99.90;;;;;;5013561;28;20095;-88
2021/12/16 15:52:48;;;;;;;394.30;46.50;;;8.50;99.90;;;;;;5012621;28;20026;-87
2021/12/16 15:55:23;;;;;;;319.25;44.47;;;8.50;99.90;;;;;;5011952;28;20034;-87
2021/12/16 15:57:48;;;;;;;379.48;44.40;;;8.50;99.90;;;;;;5012949;28;20053;-86
2021/12/16 16:00:19;;;;;;;373.35;47.72;;;8.50;99.90;;;;;;5011883;28;20036;-88
2021/12/16 16:02:45;;;;;;;428.25;51.55;;;8.50;99.90;;;;;;5013458;28;20041;-86
2021/12/16 16:05:13;;;;;;;127.63;31.92;;;8.50;99.90;;;;;;5006829;28;20052;-87
2021/12/16 16:07:40;;;;;;;183.27;36.65;;;8.40;99.90;;;;;;5014668;28;20026;-88
2021/12/16 16:10:09;;;;;;;144.02;35.50;;;8.50;99.90;;;;;;5015749;28;20386;-87
2021/12/16 16:12:34;;;;;;;158.38;37.47;;;8.50;99.90;;;;;;5009513;28;20033;-88
2021/12/16 16:15:16;;;;;;;190.50;42.88;;;8.50;99.90;;;;;;5005092;28;20529;-85
2021/12/16 16:17:54;;;;;;;277.70;43.75;;;8.50;99.90;;;;;;5002939;28;20026;-85
2021/12/16 16:20:27;;;;;;;229.07;40.22;;;8.50;99.90;;;;;;5012354;28;20079;-85
2021/12/16 16:22:52;;;;;;;143.10;36.92;;;8.50;99.90;;;;;;5013077;28;20038;-85
2021/12/16 16:25:18;;;;;;;267.55;42.72;;;8.50;99.90;;;;;;5012942;28;20033;-85
2021/12/16 16:27:44;;;;;;;172.85;34.65;;;8.50;99.90;;;;;;5012616;28;20070;-85
2021/12/16 16:30:10;;;;;;;227.02;38.00;;;8.50;99.90;;;;;;5013474;28;20030;-85
2021/12/16 16:33:05;;;;;;;332.35;44.58;;;8.50;99.90;;;;;;5003908;28;20026;-84
2021/12/16 16:35:31;;;;;;;162.35;35.00;;;8.50;99.90;;;;;;5000976;28;20494;-88
2021/12/16 16:38:12;;;;;;;93.30;32.08;;;8.40;99.90;;;;;;5012623;28;20466;-88
2021/12/16 16:40:43;;;;;;;155.55;34.58;;;8.40;99.90;;;;;;5012634;28;20034;-87
2021/12/16 16:43:34;;;;;;;152.95;35.20;;;8.40;99.90;;;;;;5012404;28;20049;-88